sensor_id;sensor_type;location;lat;lon;timestamp;pressure;altitude;pressure_sealevel;temperature;humidity
3780;BME280;1905;52.482;9.802;2023-02-28T00:00:54;102700.31;;;0.82;84.77
3780;BME280;1905;52.482;9.802;2023-02-28T00:03:23;102699.28;;;0.75;84.96
3780;BME280;1905;52.482;9.802;2023-02-28T00:05:50;102701.75;;;0.71;85.08
3780;BME280;1905;52.482;9.802;2023-02-28T00:08:18;102701.56;;;0.65;85.17
3780;BME280;1905;52.482;9.802;2023-02-28T00:10:45;102700.69;;;0.64;85.26
3780;BME280;1905;52.482;9.802;2023-02-28T00:13:13;102706.56;;;0.58;85.17
3780;BME280;1905;52.482;9.802;2023-02-28T00:15:41;102696.84;;;0.51;85.57
3780;BME280;1905;52.482;9.802;2023-02-28T00:18:08;102699.34;;;0.48;85.07
3780;BME280;1905;52.482;9.802;2023-02-28T00:20:37;102692.44;;;0.49;85.89
3780;BME280;1905;52.482;9.802;2023-02-28T00:23:05;102689.66;;;0.43;85.68
3780;BME280;1905;52.482;9.802;2023-02-28T00:25:32;102699.16;;;0.42;85.58
3780;BME280;1905;52.482;9.802;2023-02-28T00:27:59;102700.84;;;0.40;85.66
3780;BME280;1905;52.482;9.802;2023-02-28T00:30:27;102698.88;;;0.33;85.74
3780;BME280;1905;52.482;9.802;2023-02-28T00:32:55;102694.56;;;0.34;85.77
3780;BME280;1905;52.482;9.802;2023-02-28T00:35:22;102698.78;;;0.30;86.04
3780;BME280;1905;52.482;9.802;2023-02-28T00:37:51;102702.13;;;0.26;85.81
3780;BME280;1905;52.482;9.802;2023-02-28T00:40:19;102696.81;;;0.22;85.78
3780;BME280;1905;52.482;9.802;2023-02-28T00:42:46;102698.50;;;0.21;85.67
3780;BME280;1905;52.482;9.802;2023-02-28T00:45:14;102695.81;;;0.18;85.84
3780;BME280;1905;52.482;9.802;2023-02-28T00:47:41;102699.22;;;0.16;85.91
3780;BME280;1905;52.482;9.802;2023-02-28T00:50:10;102695.63;;;0.12;86.16
3780;BME280;1905;52.482;9.802;2023-02-28T00:52:38;102701.63;;;0.11;86.02
3780;BME280;1905;52.482;9.802;2023-02-28T00:55:07;102702.41;;;0.07;86.05
3780;BME280;1905;52.482;9.802;2023-02-28T00:57:35;102704.00;;;0.04;85.98
3780;BME280;1905;52.482;9.802;2023-02-28T01:00:03;102697.06;;;0.03;86.04
3780;BME280;1905;52.482;9.802;2023-02-28T01:02:31;102705.78;;;0.05;85.89
3780;BME280;1905;52.482;9.802;2023-02-28T01:04:58;102709.78;;;-0.05;86.14
3780;BME280;1905;52.482;9.802;2023-02-28T01:07:28;102699.41;;;-0.05;85.88
3780;BME280;1905;52.482;9.802;2023-02-28T01:09:56;102700.97;;;-0.10;86.11
3780;BME280;1905;52.482;9.802;2023-02-28T01:12:25;102691.38;;;-0.13;86.12
3780;BME280;1905;52.482;9.802;2023-02-28T01:14:56;102700.03;;;-0.12;86.21
3780;BME280;1905;52.482;9.802;2023-02-28T01:17:24;102699.91;;;-0.17;86.21
3780;BME280;1905;52.482;9.802;2023-02-28T01:19:53;102701.75;;;-0.13;86.24
3780;BME280;1905;52.482;9.802;2023-02-28T01:22:24;102699.84;;;-0.18;86.04
3780;BME280;1905;52.482;9.802;2023-02-28T01:24:51;102698.00;;;-0.22;85.96
3780;BME280;1905;52.482;9.802;2023-02-28T01:27:19;102696.25;;;-0.22;86.06
3780;BME280;1905;52.482;9.802;2023-02-28T01:29:48;102700.47;;;-0.25;85.87
3780;BME280;1905;52.482;9.802;2023-02-28T01:32:15;102698.59;;;-0.29;86.07
3780;BME280;1905;52.482;9.802;2023-02-28T01:34:43;102695.13;;;-0.30;86.11
3780;BME280;1905;52.482;9.802;2023-02-28T01:37:10;102698.38;;;-0.35;86.12
3780;BME280;1905;52.482;9.802;2023-02-28T01:39:38;102701.84;;;-0.36;86.30
3780;BME280;1905;52.482;9.802;2023-02-28T01:42:05;102697.47;;;-0.37;86.38
3780;BME280;1905;52.482;9.802;2023-02-28T01:44:59;102700.81;;;-0.41;86.07
3780;BME280;1905;52.482;9.802;2023-02-28T01:47:29;102696.34;;;-0.45;86.14
3780;BME280;1905;52.482;9.802;2023-02-28T01:49:59;102696.34;;;-0.45;86.24
3780;BME280;1905;52.482;9.802;2023-02-28T01:52:30;102700.50;;;-0.50;86.09
3780;BME280;1905;52.482;9.802;2023-02-28T01:54:59;102697.00;;;-0.51;86.25
3780;BME280;1905;52.482;9.802;2023-02-28T01:57:32;102700.34;;;-0.55;86.40
3780;BME280;1905;52.482;9.802;2023-02-28T02:00:08;102697.69;;;-0.56;86.34
3780;BME280;1905;52.482;9.802;2023-02-28T02:02:40;102693.28;;;-0.59;85.98
3780;BME280;1905;52.482;9.802;2023-02-28T02:05:10;102693.22;;;-0.61;86.24
3780;BME280;1905;52.482;9.802;2023-02-28T02:07:41;102703.44;;;-0.65;86.00
3780;BME280;1905;52.482;9.802;2023-02-28T02:10:15;102699.03;;;-0.68;86.54
3780;BME280;1905;52.482;9.802;2023-02-28T02:13:01;102699.75;;;-0.72;86.52
3780;BME280;1905;52.482;9.802;2023-02-28T02:15:40;102697.94;;;-0.74;86.41
3780;BME280;1905;52.482;9.802;2023-02-28T02:18:16;102696.94;;;-0.78;86.45
3780;BME280;1905;52.482;9.802;2023-02-28T02:21:28;102690.00;;;-0.79;86.33
3780;BME280;1905;52.482;9.802;2023-02-28T02:27:16;102680.13;;;-0.89;86.51
3780;BME280;1905;52.482;9.802;2023-02-28T02:30:00;102678.31;;;-0.91;86.42
3780;BME280;1905;52.482;9.802;2023-02-28T02:33:04;102679.09;;;-0.94;86.41
3780;BME280;1905;52.482;9.802;2023-02-28T02:35:40;102685.88;;;-0.97;86.66
3780;BME280;1905;52.482;9.802;2023-02-28T02:38:11;102679.75;;;-0.99;86.09
3780;BME280;1905;52.482;9.802;2023-02-28T02:40:47;102677.97;;;-1.00;86.30
3780;BME280;1905;52.482;9.802;2023-02-28T02:43:21;102680.53;;;-1.02;86.50
3780;BME280;1905;52.482;9.802;2023-02-28T02:45:56;102680.53;;;-1.02;86.12
3780;BME280;1905;52.482;9.802;2023-02-28T02:48:30;102689.78;;;-1.08;86.37
3780;BME280;1905;52.482;9.802;2023-02-28T02:51:04;102685.38;;;-1.11;86.51
3780;BME280;1905;52.482;9.802;2023-02-28T02:53:42;102689.75;;;-1.10;86.05
3780;BME280;1905;52.482;9.802;2023-02-28T02:56:13;102693.03;;;-1.14;86.01
3780;BME280;1905;52.482;9.802;2023-02-28T02:58:43;102685.94;;;-1.20;86.22
3780;BME280;1905;52.482;9.802;2023-02-28T03:01:15;102693.78;;;-1.18;86.30
3780;BME280;1905;52.482;9.802;2023-02-28T03:03:45;102694.59;;;-1.19;86.54
3780;BME280;1905;52.482;9.802;2023-02-28T03:06:14;102683.06;;;-1.27;86.13
3780;BME280;1905;52.482;9.802;2023-02-28T03:08:42;102688.22;;;-1.29;86.38
3780;BME280;1905;52.482;9.802;2023-02-28T03:11:12;102686.38;;;-1.31;86.57
3780;BME280;1905;52.482;9.802;2023-02-28T03:13:52;102690.72;;;-1.30;86.81
3780;BME280;1905;52.482;9.802;2023-02-28T03:16:29;102687.94;;;-1.36;86.41
3780;BME280;1905;52.482;9.802;2023-02-28T03:19:11;102688.69;;;-1.39;86.22
3780;BME280;1905;52.482;9.802;2023-02-28T03:21:53;102687.69;;;-1.42;86.73
3780;BME280;1905;52.482;9.802;2023-02-28T03:24:28;102685.91;;;-1.43;86.56
3780;BME280;1905;52.482;9.802;2023-02-28T03:27:05;102678.88;;;-1.47;86.38
3780;BME280;1905;52.482;9.802;2023-02-28T03:29:37;102675.44;;;-1.46;86.36
3780;BME280;1905;52.482;9.802;2023-02-28T03:32:10;102676.97;;;-1.51;86.49
3780;BME280;1905;52.482;9.802;2023-02-28T03:34:43;102674.34;;;-1.53;86.89
3780;BME280;1905;52.482;9.802;2023-02-28T03:37:18;102673.47;;;-1.53;85.99
3780;BME280;1905;52.482;9.802;2023-02-28T03:39:49;102676.81;;;-1.56;86.21
3780;BME280;1905;52.482;9.802;2023-02-28T03:42:23;102674.06;;;-1.60;86.45
3780;BME280;1905;52.482;9.802;2023-02-28T03:44:54;102671.47;;;-1.60;86.22
3780;BME280;1905;52.482;9.802;2023-02-28T03:47:26;102675.69;;;-1.62;86.30
3780;BME280;1905;52.482;9.802;2023-02-28T03:49:59;102679.06;;;-1.65;86.43
3780;BME280;1905;52.482;9.802;2023-02-28T03:52:34;102678.03;;;-1.68;86.42
3780;BME280;1905;52.482;9.802;2023-02-28T03:55:06;102686.66;;;-1.69;86.35
3780;BME280;1905;52.482;9.802;2023-02-28T03:57:41;102684.75;;;-1.73;86.35
3780;BME280;1905;52.482;9.802;2023-02-28T04:00:14;102683.78;;;-1.77;86.51
3780;BME280;1905;52.482;9.802;2023-02-28T04:02:45;102670.88;;;-1.75;86.87
3780;BME280;1905;52.482;9.802;2023-02-28T04:05:12;102688.06;;;-1.77;86.26
3780;BME280;1905;52.482;9.802;2023-02-28T04:07:41;102685.28;;;-1.82;86.31
3780;BME280;1905;52.482;9.802;2023-02-28T04:10:10;102695.75;;;-1.79;86.13
3780;BME280;1905;52.482;9.802;2023-02-28T04:12:38;102687.81;;;-1.84;86.38
3780;BME280;1905;52.482;9.802;2023-02-28T04:15:07;102687.69;;;-1.87;86.22
3780;BME280;1905;52.482;9.802;2023-02-28T04:17:35;102690.25;;;-1.88;85.99
3780;BME280;1905;52.482;9.802;2023-02-28T04:20:03;102695.31;;;-1.91;86.49
3780;BME280;1905;52.482;9.802;2023-02-28T04:22:35;102691.78;;;-1.93;86.38
3780;BME280;1905;52.482;9.802;2023-02-28T04:25:06;102688.31;;;-1.94;86.11
3780;BME280;1905;52.482;9.802;2023-02-28T04:27:34;102687.25;;;-1.99;86.20
3780;BME280;1905;52.482;9.802;2023-02-28T04:30:01;102698.41;;;-2.00;85.97
3780;BME280;1905;52.482;9.802;2023-02-28T04:32:29;102698.34;;;-2.01;86.09
3780;BME280;1905;52.482;9.802;2023-02-28T04:34:56;102693.91;;;-2.04;86.43
3780;BME280;1905;52.482;9.802;2023-02-28T04:37:24;102693.91;;;-2.04;85.94
3780;BME280;1905;52.482;9.802;2023-02-28T04:39:54;102700.47;;;-2.12;86.08
3780;BME280;1905;52.482;9.802;2023-02-28T04:42:23;102695.22;;;-2.15;86.55
3780;BME280;1905;52.482;9.802;2023-02-28T04:44:51;102700.41;;;-2.15;86.43
3780;BME280;1905;52.482;9.802;2023-02-28T04:47:19;102697.72;;;-2.16;86.60
3780;BME280;1905;52.482;9.802;2023-02-28T04:49:46;102694.19;;;-2.18;86.54
3780;BME280;1905;52.482;9.802;2023-02-28T04:52:14;102707.94;;;-2.19;85.92
3780;BME280;1905;52.482;9.802;2023-02-28T04:54:41;102700.13;;;-2.21;86.31
3780;BME280;1905;52.482;9.802;2023-02-28T04:57:09;102700.00;;;-2.24;86.09
3780;BME280;1905;52.482;9.802;2023-02-28T04:59:37;102708.59;;;-2.25;86.13
3780;BME280;1905;52.482;9.802;2023-02-28T05:02:05;102705.00;;;-2.28;86.08
3780;BME280;1905;52.482;9.802;2023-02-28T05:04:34;102706.72;;;-2.29;86.69
3780;BME280;1905;52.482;9.802;2023-02-28T05:07:02;102706.56;;;-2.32;86.51
3780;BME280;1905;52.482;9.802;2023-02-28T05:09:30;102697.88;;;-2.34;86.21
3780;BME280;1905;52.482;9.802;2023-02-28T05:11:59;102708.09;;;-2.37;86.23
3780;BME280;1905;52.482;9.802;2023-02-28T05:14:26;102699.38;;;-2.39;86.00
3780;BME280;1905;52.482;9.802;2023-02-28T05:16:55;102701.00;;;-2.41;86.25
3780;BME280;1905;52.482;9.802;2023-02-28T05:19:22;102705.25;;;-2.43;86.55
3780;BME280;1905;52.482;9.802;2023-02-28T05:21:51;102704.31;;;-2.45;86.66
3780;BME280;1905;52.482;9.802;2023-02-28T05:24:20;102709.47;;;-2.45;86.53
3780;BME280;1905;52.482;9.802;2023-02-28T05:26:51;102707.69;;;-2.46;86.56
3780;BME280;1905;52.482;9.802;2023-02-28T05:29:19;102711.94;;;-2.48;86.25
3780;BME280;1905;52.482;9.802;2023-02-28T05:31:46;102707.44;;;-2.52;86.28
3780;BME280;1905;52.482;9.802;2023-02-28T05:34:16;102705.69;;;-2.53;86.64
3780;BME280;1905;52.482;9.802;2023-02-28T05:36:43;102703.78;;;-2.57;86.54
3780;BME280;1905;52.482;9.802;2023-02-28T05:39:11;102707.22;;;-2.58;86.30
3780;BME280;1905;52.482;9.802;2023-02-28T05:41:40;102709.72;;;-2.60;86.35
3780;BME280;1905;52.482;9.802;2023-02-28T05:44:07;102708.00;;;-2.59;86.29
3780;BME280;1905;52.482;9.802;2023-02-28T05:46:35;102713.84;;;-2.63;86.02
3780;BME280;1905;52.482;9.802;2023-02-28T05:49:05;102717.34;;;-2.63;86.20
3780;BME280;1905;52.482;9.802;2023-02-28T05:51:34;102716.41;;;-2.65;86.15
3780;BME280;1905;52.482;9.802;2023-02-28T05:54:03;102718.09;;;-2.65;86.14
3780;BME280;1905;52.482;9.802;2023-02-28T05:56:30;102711.84;;;-2.70;86.58
3780;BME280;1905;52.482;9.802;2023-02-28T05:59:01;102705.88;;;-2.69;85.99
3780;BME280;1905;52.482;9.802;2023-02-28T06:01:33;102710.06;;;-2.71;86.21
3780;BME280;1905;52.482;9.802;2023-02-28T06:04:03;102719.41;;;-2.75;86.54
3780;BME280;1905;52.482;9.802;2023-02-28T06:06:31;102719.41;;;-2.75;86.71
3780;BME280;1905;52.482;9.802;2023-02-28T06:09:04;102718.53;;;-2.75;86.58
3780;BME280;1905;52.482;9.802;2023-02-28T06:11:32;102718.53;;;-2.75;86.18
3780;BME280;1905;52.482;9.802;2023-02-28T06:14:00;102721.03;;;-2.77;86.01
3780;BME280;1905;52.482;9.802;2023-02-28T06:16:29;102729.47;;;-2.81;86.34
3780;BME280;1905;52.482;9.802;2023-02-28T06:18:58;102731.13;;;-2.83;86.38
3780;BME280;1905;52.482;9.802;2023-02-28T06:21:26;102739.88;;;-2.79;85.76
3780;BME280;1905;52.482;9.802;2023-02-28T06:23:56;102733.63;;;-2.84;86.52
3780;BME280;1905;52.482;9.802;2023-02-28T06:26:25;102736.97;;;-2.87;86.08
3780;BME280;1905;52.482;9.802;2023-02-28T06:28:52;102736.06;;;-2.87;86.54
3780;BME280;1905;52.482;9.802;2023-02-28T06:31:21;102743.81;;;-2.87;85.89
3780;BME280;1905;52.482;9.802;2023-02-28T06:33:48;102750.69;;;-2.88;86.39
3780;BME280;1905;52.482;9.802;2023-02-28T06:36:17;102748.09;;;-2.88;86.08
3780;BME280;1905;52.482;9.802;2023-02-28T06:38:44;102752.28;;;-2.91;86.63
3780;BME280;1905;52.482;9.802;2023-02-28T06:41:14;102765.25;;;-2.90;86.43
3780;BME280;1905;52.482;9.802;2023-02-28T06:43:43;102759.94;;;-2.93;86.21
3780;BME280;1905;52.482;9.802;2023-02-28T06:46:13;102763.38;;;-2.94;86.49
3780;BME280;1905;52.482;9.802;2023-02-28T06:48:42;102762.47;;;-2.94;86.26
3780;BME280;1905;52.482;9.802;2023-02-28T06:51:13;102768.38;;;-2.97;85.95
3780;BME280;1905;52.482;9.802;2023-02-28T06:53:41;102762.47;;;-2.94;86.54
3780;BME280;1905;52.482;9.802;2023-02-28T06:56:10;102768.31;;;-2.98;85.97
3780;BME280;1905;52.482;9.802;2023-02-28T06:58:39;102773.56;;;-2.97;86.21
3780;BME280;1905;52.482;9.802;2023-02-28T07:01:08;102777.69;;;-3.01;86.59
3780;BME280;1905;52.482;9.802;2023-02-28T07:03:36;102774.31;;;-2.99;86.62
3780;BME280;1905;52.482;9.802;2023-02-28T07:06:05;102779.47;;;-2.99;86.07
3780;BME280;1905;52.482;9.802;2023-02-28T07:08:33;102781.97;;;-3.01;86.13
3780;BME280;1905;52.482;9.802;2023-02-28T07:11:04;102775.91;;;-3.02;86.27
3780;BME280;1905;52.482;9.802;2023-02-28T07:13:31;102781.09;;;-3.02;85.69
3780;BME280;1905;52.482;9.802;2023-02-28T07:16:01;102777.69;;;-3.01;86.27
3780;BME280;1905;52.482;9.802;2023-02-28T07:18:31;102785.44;;;-3.01;85.86
3780;BME280;1905;52.482;9.802;2023-02-28T07:21:01;102782.94;;;-2.99;86.42
3780;BME280;1905;52.482;9.802;2023-02-28T07:23:29;102780.28;;;-3.01;85.73
3780;BME280;1905;52.482;9.802;2023-02-28T07:25:56;102780.22;;;-3.02;85.91
3780;BME280;1905;52.482;9.802;2023-02-28T07:28:24;102782.72;;;-3.04;85.75
3780;BME280;1905;52.482;9.802;2023-02-28T07:30:52;102775.88;;;-3.03;86.44
3780;BME280;1905;52.482;9.802;2023-02-28T07:33:19;102789.66;;;-3.03;86.23
3780;BME280;1905;52.482;9.802;2023-02-28T07:35:48;102784.50;;;-3.03;86.08
3780;BME280;1905;52.482;9.802;2023-02-28T07:38:16;102783.81;;;-2.98;85.52
3780;BME280;1905;52.482;9.802;2023-02-28T07:40:45;102788.94;;;-3.00;85.96
3780;BME280;1905;52.482;9.802;2023-02-28T07:43:13;102789.81;;;-2.99;86.17
3780;BME280;1905;52.482;9.802;2023-02-28T07:45:40;102791.56;;;-2.98;85.62
3780;BME280;1905;52.482;9.802;2023-02-28T07:48:09;102789.13;;;-2.95;85.61
3780;BME280;1905;52.482;9.802;2023-02-28T07:50:37;102790.06;;;-2.93;86.37
3780;BME280;1905;52.482;9.802;2023-02-28T07:53:06;102797.00;;;-2.92;85.99
3780;BME280;1905;52.482;9.802;2023-02-28T07:55:33;102788.59;;;-2.88;85.58
3780;BME280;1905;52.482;9.802;2023-02-28T07:58:01;102794.00;;;-2.82;86.04
3780;BME280;1905;52.482;9.802;2023-02-28T08:03:40;102788.59;;;-2.88;85.22
3780;BME280;1905;52.482;9.802;2023-02-28T08:09:35;102785.47;;;-2.81;85.41
3780;BME280;1905;52.482;9.802;2023-02-28T08:12:02;102781.22;;;-2.79;86.49
3780;BME280;1905;52.482;9.802;2023-02-28T08:14:30;102780.84;;;-2.69;86.22
3780;BME280;1905;52.482;9.802;2023-02-28T08:16:58;102783.00;;;-2.59;86.53
3780;BME280;1905;52.482;9.802;2023-02-28T08:19:25;102786.53;;;-2.57;87.03
3780;BME280;1905;52.482;9.802;2023-02-28T08:21:53;102790.19;;;-2.52;87.83
3780;BME280;1905;52.482;9.802;2023-02-28T08:24:21;102784.34;;;-2.48;86.64
3780;BME280;1905;52.482;9.802;2023-02-28T08:26:50;102788.69;;;-2.47;86.48
3780;BME280;1905;52.482;9.802;2023-02-28T08:29:17;102784.63;;;-2.42;87.10
3780;BME280;1905;52.482;9.802;2023-02-28T08:31:45;102782.41;;;-2.33;87.92
3780;BME280;1905;52.482;9.802;2023-02-28T08:34:14;102789.34;;;-2.32;87.04
3780;BME280;1905;52.482;9.802;2023-02-28T08:36:42;102798.94;;;-2.29;87.04
3780;BME280;1905;52.482;9.802;2023-02-28T08:39:11;102794.78;;;-2.26;87.39
3780;BME280;1905;52.482;9.802;2023-02-28T08:41:39;102797.44;;;-2.24;87.69
3780;BME280;1905;52.482;9.802;2023-02-28T08:44:08;102796.94;;;-2.16;87.77
3780;BME280;1905;52.482;9.802;2023-02-28T08:46:36;102799.78;;;-2.10;88.30
3780;BME280;1905;52.482;9.802;2023-02-28T08:49:03;102809.44;;;-2.06;87.97
3780;BME280;1905;52.482;9.802;2023-02-28T08:51:31;102798.31;;;-2.03;87.69
3780;BME280;1905;52.482;9.802;2023-02-28T08:53:59;102796.03;;;-1.96;88.63
3780;BME280;1905;52.482;9.802;2023-02-28T08:56:28;102798.63;;;-1.96;88.22
3780;BME280;1905;52.482;9.802;2023-02-28T08:58:56;102794.69;;;-1.88;87.95
3780;BME280;1905;52.482;9.802;2023-02-28T09:01:27;102798.47;;;-1.79;88.47
3780;BME280;1905;52.482;9.802;2023-02-28T09:03:56;102799.75;;;-1.68;89.23
3780;BME280;1905;52.482;9.802;2023-02-28T09:06:25;102800.84;;;-1.63;88.50
3780;BME280;1905;52.482;9.802;2023-02-28T09:08:56;102806.25;;;-1.57;88.45
3780;BME280;1905;52.482;9.802;2023-02-28T09:11:24;102806.88;;;-1.42;88.48
3780;BME280;1905;52.482;9.802;2023-02-28T09:13:52;102801.69;;;-1.42;88.12
3780;BME280;1905;52.482;9.802;2023-02-28T09:16:19;102802.88;;;-1.34;88.20
3780;BME280;1905;52.482;9.802;2023-02-28T09:18:48;102806.56;;;-1.28;88.41
3780;BME280;1905;52.482;9.802;2023-02-28T09:21:17;102801.56;;;-1.23;87.85
3780;BME280;1905;52.482;9.802;2023-02-28T09:23:46;102803.84;;;-1.08;87.79
3780;BME280;1905;52.482;9.802;2023-02-28T09:26:15;102800.41;;;-1.09;87.46
3780;BME280;1905;52.482;9.802;2023-02-28T09:28:43;102798.25;;;-0.97;87.35
3780;BME280;1905;52.482;9.802;2023-02-28T09:31:12;102802.00;;;-0.89;86.90
3780;BME280;1905;52.482;9.802;2023-02-28T09:33:40;102800.34;;;-0.87;87.36
3780;BME280;1905;52.482;9.802;2023-02-28T09:36:09;102798.06;;;-0.79;86.81
3780;BME280;1905;52.482;9.802;2023-02-28T09:38:37;102801.84;;;-0.70;86.71
3780;BME280;1905;52.482;9.802;2023-02-28T09:41:11;102794.19;;;-0.67;86.86
3780;BME280;1905;52.482;9.802;2023-02-28T09:43:44;102790.41;;;-0.51;86.51
3780;BME280;1905;52.482;9.802;2023-02-28T09:46:25;102793.38;;;-0.40;86.09
3780;BME280;1905;52.482;9.802;2023-02-28T09:48:54;102803.28;;;-0.30;85.47
3780;BME280;1905;52.482;9.802;2023-02-28T09:51:40;102800.19;;;-0.19;85.62
3780;BME280;1905;52.482;9.802;2023-02-28T09:54:13;102796.09;;;-0.12;85.42
3780;BME280;1905;52.482;9.802;2023-02-28T09:56:47;102795.28;;;-0.11;85.90
3780;BME280;1905;52.482;9.802;2023-02-28T09:59:32;102793.94;;;0.00;85.62
3780;BME280;1905;52.482;9.802;2023-02-28T10:02:11;102794.97;;;0.05;85.11
3780;BME280;1905;52.482;9.802;2023-02-28T10:04:43;102790.03;;;0.14;84.96
3780;BME280;1905;52.482;9.802;2023-02-28T10:07:28;102792.94;;;0.23;84.85
3780;BME280;1905;52.482;9.802;2023-02-28T10:10:05;102800.94;;;0.29;84.50
3780;BME280;1905;52.482;9.802;2023-02-28T10:12:38;102799.25;;;0.30;84.27
3780;BME280;1905;52.482;9.802;2023-02-28T10:15:13;102796.88;;;0.37;83.88
3780;BME280;1905;52.482;9.802;2023-02-28T10:17:43;102800.53;;;0.44;83.79
3780;BME280;1905;52.482;9.802;2023-02-28T10:20:23;102802.53;;;0.52;83.67
3780;BME280;1905;52.482;9.802;2023-02-28T10:23:00;102794.03;;;0.56;84.27
3780;BME280;1905;52.482;9.802;2023-02-28T10:25:35;102791.66;;;0.64;83.43
3780;BME280;1905;52.482;9.802;2023-02-28T10:28:10;102798.75;;;0.70;83.39
3780;BME280;1905;52.482;9.802;2023-02-28T10:30:41;102802.47;;;0.78;82.76
3780;BME280;1905;52.482;9.802;2023-02-28T10:33:17;102794.09;;;0.88;82.60
3780;BME280;1905;52.482;9.802;2023-02-28T10:35:46;102803.72;;;0.90;82.80
3780;BME280;1905;52.482;9.802;2023-02-28T10:38:19;102802.31;;;1.01;82.22
3780;BME280;1905;52.482;9.802;2023-02-28T10:40:47;102792.78;;;1.02;81.90
3780;BME280;1905;52.482;9.802;2023-02-28T10:43:20;102794.66;;;1.06;82.11
3780;BME280;1905;52.482;9.802;2023-02-28T10:45:57;102796.59;;;1.13;81.95
3780;BME280;1905;52.482;9.802;2023-02-28T10:48:37;102800.13;;;1.15;81.65
3780;BME280;1905;52.482;9.802;2023-02-28T10:51:07;102799.47;;;1.22;81.80
3780;BME280;1905;52.482;9.802;2023-02-28T10:53:47;102799.72;;;1.31;81.88
3780;BME280;1905;52.482;9.802;2023-02-28T10:56:27;102788.56;;;1.35;81.10
3780;BME280;1905;52.482;9.802;2023-02-28T10:58:58;102789.06;;;1.53;80.57
3780;BME280;1905;52.482;9.802;2023-02-28T11:01:36;102785.63;;;1.54;80.40
3780;BME280;1905;52.482;9.802;2023-02-28T11:04:16;102779.63;;;1.58;79.49
3780;BME280;1905;52.482;9.802;2023-02-28T11:06:45;102781.53;;;1.64;79.33
3780;BME280;1905;52.482;9.802;2023-02-28T11:09:22;102777.28;;;1.67;79.33
3780;BME280;1905;52.482;9.802;2023-02-28T11:11:50;102774.94;;;1.76;78.42
3780;BME280;1905;52.482;9.802;2023-02-28T11:14:21;102775.06;;;1.83;78.36
3780;BME280;1905;52.482;9.802;2023-02-28T11:16:49;102776.06;;;1.88;79.09
3780;BME280;1905;52.482;9.802;2023-02-28T11:19:22;102773.69;;;1.95;79.11
3780;BME280;1905;52.482;9.802;2023-02-28T11:21:54;102772.94;;;2.01;78.45
3780;BME280;1905;52.482;9.802;2023-02-28T11:24:26;102771.34;;;2.06;77.20
3780;BME280;1905;52.482;9.802;2023-02-28T11:26:55;102772.31;;;2.11;76.82
3780;BME280;1905;52.482;9.802;2023-02-28T11:29:24;102762.72;;;2.10;76.89
3780;BME280;1905;52.482;9.802;2023-02-28T11:32:19;102756.78;;;2.14;77.07
3780;BME280;1905;52.482;9.802;2023-02-28T11:35:01;102761.16;;;2.16;78.16
3780;BME280;1905;52.482;9.802;2023-02-28T11:37:30;102756.88;;;2.18;77.06
3780;BME280;1905;52.482;9.802;2023-02-28T11:39:59;102756.38;;;2.33;77.27
3780;BME280;1905;52.482;9.802;2023-02-28T11:42:39;102751.22;;;2.36;77.48
3780;BME280;1905;52.482;9.802;2023-02-28T11:45:42;102746.00;;;2.36;76.62
3780;BME280;1905;52.482;9.802;2023-02-28T11:48:19;102748.88;;;2.48;76.59
3780;BME280;1905;52.482;9.802;2023-02-28T11:51:03;102742.97;;;2.55;76.85
3780;BME280;1905;52.482;9.802;2023-02-28T11:53:55;102746.50;;;2.57;75.81
3780;BME280;1905;52.482;9.802;2023-02-28T11:56:32;102741.34;;;2.60;77.47
3780;BME280;1905;52.482;9.802;2023-02-28T11:59:10;102744.13;;;2.69;75.10
3780;BME280;1905;52.482;9.802;2023-02-28T12:01:55;102745.06;;;2.71;76.50
3780;BME280;1905;52.482;9.802;2023-02-28T12:04:35;102739.97;;;2.77;75.26
3780;BME280;1905;52.482;9.802;2023-02-28T12:07:14;102741.81;;;2.81;76.48
3780;BME280;1905;52.482;9.802;2023-02-28T12:09:49;102747.09;;;2.84;75.97
3780;BME280;1905;52.482;9.802;2023-02-28T12:12:34;102729.78;;;2.89;75.49
3780;BME280;1905;52.482;9.802;2023-02-28T12:15:18;102730.69;;;2.91;75.02
3780;BME280;1905;52.482;9.802;2023-02-28T12:18:03;102733.50;;;3.00;74.95
3780;BME280;1905;52.482;9.802;2023-02-28T12:20:39;102729.25;;;3.04;75.59
3780;BME280;1905;52.482;9.802;2023-02-28T12:23:40;102726.69;;;3.07;76.69
3780;BME280;1905;52.482;9.802;2023-02-28T12:26:14;102716.34;;;3.12;75.82
3780;BME280;1905;52.482;9.802;2023-02-28T12:28:53;102719.91;;;3.17;74.49
3780;BME280;1905;52.482;9.802;2023-02-28T12:31:28;102718.19;;;3.19;74.24
3780;BME280;1905;52.482;9.802;2023-02-28T12:34:00;102708.91;;;3.33;73.52
3780;BME280;1905;52.482;9.802;2023-02-28T12:36:30;102703.69;;;3.33;75.44
3780;BME280;1905;52.482;9.802;2023-02-28T12:39:00;102704.63;;;3.38;72.72
3780;BME280;1905;52.482;9.802;2023-02-28T12:41:36;102702.16;;;3.45;73.74
3780;BME280;1905;52.482;9.802;2023-02-28T12:44:11;102697.88;;;3.49;73.83
3780;BME280;1905;52.482;9.802;2023-02-28T12:46:41;102693.50;;;3.48;73.53
3780;BME280;1905;52.482;9.802;2023-02-28T12:49:12;102691.81;;;3.50;75.19
3780;BME280;1905;52.482;9.802;2023-02-28T12:51:43;102687.44;;;3.49;74.84
3780;BME280;1905;52.482;9.802;2023-02-28T12:54:18;102678.81;;;3.54;72.38
3780;BME280;1905;52.482;9.802;2023-02-28T12:56:51;102677.28;;;3.64;72.03
3780;BME280;1905;52.482;9.802;2023-02-28T12:59:26;102681.72;;;3.71;73.16
3780;BME280;1905;52.482;9.802;2023-02-28T13:02:01;102671.28;;;3.73;72.09
3780;BME280;1905;52.482;9.802;2023-02-28T13:04:47;102657.38;;;3.75;73.79
3780;BME280;1905;52.482;9.802;2023-02-28T13:07:59;102657.50;;;3.80;73.93
3780;BME280;1905;52.482;9.802;2023-02-28T13:10:41;102663.50;;;3.76;72.84
3780;BME280;1905;52.482;9.802;2023-02-28T13:13:15;102652.25;;;3.80;73.62
3780;BME280;1905;52.482;9.802;2023-02-28T13:16:06;102649.81;;;3.90;73.50
3780;BME280;1905;52.482;9.802;2023-02-28T13:18:36;102644.59;;;3.90;73.89
3780;BME280;1905;52.482;9.802;2023-02-28T13:21:07;102637.53;;;3.86;74.26
3780;BME280;1905;52.482;9.802;2023-02-28T13:23:39;102642.81;;;3.89;74.12
3780;BME280;1905;52.482;9.802;2023-02-28T13:26:07;102643.84;;;3.99;72.66
3780;BME280;1905;52.482;9.802;2023-02-28T13:29:20;102641.28;;;4.03;73.99
3780;BME280;1905;52.482;9.802;2023-02-28T13:32:32;102629.06;;;3.99;73.82
3780;BME280;1905;52.482;9.802;2023-02-28T13:35:14;102633.50;;;4.05;74.80
3780;BME280;1905;52.482;9.802;2023-02-28T13:38:23;102630.97;;;4.12;75.49
3780;BME280;1905;52.482;9.802;2023-02-28T13:40:51;102631.97;;;4.20;74.33
3780;BME280;1905;52.482;9.802;2023-02-28T13:43:18;102633.69;;;4.20;73.59
3780;BME280;1905;52.482;9.802;2023-02-28T13:46:08;102623.28;;;4.23;74.59
3780;BME280;1905;52.482;9.802;2023-02-28T13:48:38;102626.00;;;4.31;74.87
3780;BME280;1905;52.482;9.802;2023-02-28T13:51:35;102627.72;;;4.29;76.41